Time;durP1;ratioP1;P1;durP2;ratioP2;P2;SDS_P1;SDS_P2;PMS_P1;PMS_P2;Temp;Humidity;BMP_temperature;BMP_pressure;BME280_temperature;BME280_humidity;BME280_pressure;Samples;Min_cycle;Max_cycle;Signal;HPM_P1;HPM_P2
2023/07/26 00:02:10;;;;;;;6.70;5.20;;;23.70;99.90;;;;;;5066347;28;20234;-75
2023/07/26 00:04:36;;;;;;;4.83;4.40;;;23.50;99.90;;;;;;5067960;28;20262;-75
2023/07/26 00:07:02;;;;;;;7.83;4.80;;;23.30;99.90;;;;;;5068046;28;20193;-75
2023/07/26 00:09:27;;;;;;;10.27;5.57;;;23.40;99.90;;;;;;5067884;28;20452;-82
2023/07/26 00:11:53;;;;;;;8.50;5.70;;;23.40;99.90;;;;;;5068057;28;20323;-79
2023/07/26 00:14:19;;;;;;;9.50;6.00;;;23.40;99.90;;;;;;5067482;28;20650;-74
2023/07/26 00:16:44;;;;;;;6.67;5.13;;;23.30;99.90;;;;;;5066394;28;20591;-82
2023/07/26 00:19:10;;;;;;;4.40;4.00;;;23.30;99.90;;;;;;5067790;28;20265;-82
2023/07/26 00:21:37;;;;;;;5.60;4.10;;;23.20;99.90;;;;;;5067632;28;20465;-74
2023/07/26 00:24:02;;;;;;;5.80;4.90;;;23.20;99.90;;;;;;5066424;28;20182;-75
2023/07/26 00:26:28;;;;;;;4.93;4.13;;;23.20;99.90;;;;;;5067697;28;20409;-82
2023/07/26 00:28:54;;;;;;;5.23;4.73;;;23.10;99.90;;;;;;5066075;28;20182;-81
2023/07/26 00:31:20;;;;;;;4.90;4.43;;;23.10;99.90;;;;;;5068070;28;20174;-75
2023/07/26 00:33:46;;;;;;;5.37;4.87;;;23.00;99.90;;;;;;5065853;28;20552;-75
2023/07/26 00:36:12;;;;;;;7.93;5.40;;;23.00;99.90;;;;;;5066246;28;20415;-75
2023/07/26 00:38:37;;;;;;;5.10;4.60;;;22.90;99.90;;;;;;5067601;28;20538;-82
2023/07/26 00:41:03;;;;;;;5.90;5.00;;;22.90;99.90;;;;;;5067418;28;20642;-80
2023/07/26 00:43:29;;;;;;;14.70;5.37;;;22.90;99.90;;;;;;5067639;28;20233;-75
2023/07/26 00:45:54;;;;;;;4.33;3.80;;;22.80;99.90;;;;;;5065960;28;20185;-75
2023/07/26 00:48:20;;;;;;;4.40;4.00;;;22.80;99.90;;;;;;5066747;28;20254;-74
2023/07/26 00:50:47;;;;;;;5.07;4.20;;;22.80;99.90;;;;;;5066905;28;20182;-75
2023/07/26 00:53:14;;;;;;;5.43;4.00;;;22.80;99.90;;;;;;5065846;28;20710;-81
2023/07/26 00:55:40;;;;;;;4.07;3.50;;;22.80;99.90;;;;;;5065393;28;20410;-75
2023/07/26 00:58:07;;;;;;;3.67;3.10;;;22.80;99.90;;;;;;5066911;28;20568;-74
2023/07/26 01:00:32;;;;;;;5.03;3.50;;;22.70;99.90;;;;;;5065252;28;20583;-81
2023/07/26 01:02:58;;;;;;;5.80;3.23;;;22.60;99.90;;;;;;5065032;28;20829;-82
2023/07/26 01:05:29;;;;;;;5.07;2.67;;;22.60;99.90;;;;;;5066734;28;20174;-80
2023/07/26 01:08:34;;;;;;;3.23;2.93;;;22.50;99.90;;;;;;5067260;28;20566;-74
2023/07/26 01:11:22;;;;;;;2.90;2.60;;;22.60;99.90;;;;;;5066895;28;20763;-82
2023/07/26 01:13:55;;;;;;;5.33;3.80;;;22.60;99.90;;;;;;5064606;28;20506;-82
2023/07/26 01:16:21;;;;;;;3.40;2.87;;;22.60;99.90;;;;;;5065597;28;20418;-74
2023/07/26 01:18:47;;;;;;;5.03;3.50;;;22.60;99.90;;;;;;5065284;28;20629;-74
2023/07/26 01:21:13;;;;;;;3.90;3.20;;;22.60;99.90;;;;;;5067061;28;20463;-74
2023/07/26 01:23:39;;;;;;;5.80;4.13;;;22.60;99.90;;;;;;5064964;28;20253;-74
2023/07/26 01:26:05;;;;;;;4.73;3.23;;;22.50;99.90;;;;;;5065172;28;20529;-74
2023/07/26 01:28:31;;;;;;;4.23;3.83;;;22.50;99.90;;;;;;5066359;28;20448;-81
2023/07/26 01:30:59;;;;;;;4.13;3.73;;;22.40;99.90;;;;;;5064917;28;20839;-81
2023/07/26 01:33:26;;;;;;;5.07;3.93;;;22.40;99.90;;;;;;5066371;28;21000;-82
2023/07/26 01:35:52;;;;;;;4.50;4.10;;;22.40;99.90;;;;;;5064490;28;20402;-81
2023/07/26 01:38:19;;;;;;;4.47;4.07;;;22.40;99.90;;;;;;5065063;28;20461;-82
2023/07/26 01:40:46;;;;;;;6.10;4.33;;;22.40;99.90;;;;;;5065981;28;20394;-74
2023/07/26 01:43:11;;;;;;;6.57;4.90;;;22.40;99.90;;;;;;5066541;28;20477;-75
2023/07/26 01:45:37;;;;;;;6.73;4.60;;;22.30;99.90;;;;;;5065855;28;20471;-81
2023/07/26 01:48:03;;;;;;;10.73;5.20;;;22.40;99.90;;;;;;5066331;28;20207;-82
2023/07/26 01:50:28;;;;;;;6.63;4.83;;;22.40;99.90;;;;;;5065839;28;20173;-81
2023/07/26 01:52:54;;;;;;;6.00;5.50;;;22.40;99.90;;;;;;5064896;28;20430;-74
2023/07/26 01:55:20;;;;;;;5.57;4.83;;;22.50;99.90;;;;;;5064358;28;20196;-75
2023/07/26 01:57:45;;;;;;;6.50;5.90;;;22.40;99.90;;;;;;5064397;28;20240;-82
2023/07/26 02:00:11;;;;;;;6.60;5.23;;;22.40;99.90;;;;;;5065626;28;20537;-76
2023/07/26 02:02:37;;;;;;;7.17;6.20;;;22.50;99.90;;;;;;5065436;28;20761;-82
2023/07/26 02:05:03;;;;;;;6.80;6.10;;;22.50;99.90;;;;;;5064187;28;20226;-77
2023/07/26 02:07:28;;;;;;;11.00;6.90;;;22.40;99.90;;;;;;5064228;28;20244;-74
2023/07/26 02:09:54;;;;;;;10.20;6.50;;;22.40;99.90;;;;;;5064606;28;20443;-75
2023/07/26 02:12:20;;;;;;;6.97;6.20;;;22.40;99.90;;;;;;5065819;28;20591;-82
2023/07/26 02:14:45;;;;;;;6.97;5.70;;;22.40;99.90;;;;;;5065495;28;20223;-75
2023/07/26 02:17:11;;;;;;;6.07;5.47;;;22.40;99.90;;;;;;5065906;28;20197;-75
2023/07/26 02:19:37;;;;;;;6.73;6.00;;;22.40;99.90;;;;;;5065463;28;20181;-74
2023/07/26 02:22:03;;;;;;;6.17;5.57;;;22.40;99.90;;;;;;5063757;28;20847;-74
2023/07/26 02:24:28;;;;;;;7.70;6.03;;;22.40;99.90;;;;;;5064138;28;20560;-81
2023/07/26 02:26:54;;;;;;;7.47;5.67;;;22.40;99.90;;;;;;5065357;28;20201;-75
2023/07/26 02:29:19;;;;;;;6.20;5.00;;;22.40;99.90;;;;;;5064244;28;20177;-77
2023/07/26 02:31:45;;;;;;;5.63;5.10;;;22.40;99.90;;;;;;5065655;28;20291;-82
2023/07/26 02:34:11;;;;;;;7.30;4.80;;;22.40;99.90;;;;;;5064185;28;20435;-79
2023/07/26 02:36:36;;;;;;;5.50;4.90;;;22.40;99.90;;;;;;5063887;28;20666;-75
2023/07/26 02:39:02;;;;;;;7.07;5.40;;;22.40;99.90;;;;;;5065500;28;20257;-75
2023/07/26 02:41:27;;;;;;;6.93;5.20;;;22.40;99.90;;;;;;5063975;28;20493;-81
2023/07/26 02:43:53;;;;;;;6.50;5.75;;;22.30;99.90;;;;;;5065486;28;20707;-74
2023/07/26 02:46:18;;;;;;;9.30;6.03;;;22.40;99.90;;;;;;5064204;28;20177;-81
2023/07/26 02:48:44;;;;;;;9.90;6.13;;;22.30;99.90;;;;;;5064978;28;20690;-82
2023/07/26 02:51:10;;;;;;;12.97;6.90;;;22.30;99.90;;;;;;5065602;28;20180;-74
2023/07/26 02:53:35;;;;;;;10.33;7.00;;;22.30;99.90;;;;;;5065186;28;20185;-83
2023/07/26 02:56:01;;;;;;;10.23;7.57;;;22.30;99.90;;;;;;5064507;28;20255;-75
2023/07/26 02:58:27;;;;;;;7.60;6.67;;;22.30;99.90;;;;;;5067268;28;20259;-82
2023/07/26 03:00:53;;;;;;;14.77;7.37;;;22.20;99.90;;;;;;5069317;28;20177;-74
2023/07/26 03:03:19;;;;;;;7.60;6.70;;;22.20;99.90;;;;;;5069074;28;20217;-82
2023/07/26 03:05:44;;;;;;;7.07;5.27;;;22.20;99.90;;;;;;5068765;28;20402;-76
2023/07/26 03:08:10;;;;;;;6.77;5.67;;;22.20;99.90;;;;;;5067714;28;20699;-75
2023/07/26 03:10:36;;;;;;;8.13;6.53;;;22.20;99.90;;;;;;5067579;28;20189;-78
2023/07/26 03:13:01;;;;;;;6.63;5.93;;;22.10;99.90;;;;;;5067941;28;20201;-81
2023/07/26 03:15:27;;;;;;;9.73;7.37;;;22.10;99.90;;;;;;5068858;28;20179;-81
2023/07/26 03:17:53;;;;;;;6.60;6.00;;;22.10;99.90;;;;;;5068900;28;20211;-82
2023/07/26 03:20:18;;;;;;;6.90;6.20;;;22.10;99.90;;;;;;5068756;28;20176;-79
2023/07/26 03:22:44;;;;;;;7.50;6.67;;;22.20;99.90;;;;;;5068426;28;20270;-81
2023/07/26 03:25:09;;;;;;;8.73;6.33;;;22.30;99.90;;;;;;5067427;28;20654;-81
2023/07/26 03:27:35;;;;;;;7.27;5.87;;;22.30;99.90;;;;;;5066926;28;20607;-74
2023/07/26 03:30:01;;;;;;;7.57;6.80;;;22.30;99.90;;;;;;5067401;28;20555;-82
2023/07/26 03:32:26;;;;;;;8.20;6.30;;;22.40;99.90;;;;;;5065951;28;20460;-75
2023/07/26 03:34:52;;;;;;;7.97;7.17;;;22.40;99.90;;;;;;5067969;28;20348;-81
2023/07/26 03:37:17;;;;;;;7.73;6.57;;;22.40;99.90;;;;;;5068450;28;20197;-75
2023/07/26 03:39:43;;;;;;;6.90;6.30;;;22.40;99.90;;;;;;5068557;28;20209;-80
2023/07/26 03:42:09;;;;;;;7.70;7.00;;;22.40;99.90;;;;;;5066866;28;20213;-75
2023/07/26 03:44:34;;;;;;;7.30;6.53;;;22.40;99.90;;;;;;5080395;28;20672;-80
2023/07/26 03:47:00;;;;;;;7.60;6.23;;;22.40;99.90;;;;;;5086956;28;20245;-75
2023/07/26 03:49:26;;;;;;;6.80;6.10;;;22.50;99.90;;;;;;5088221;28;20349;-75
2023/07/26 03:51:51;;;;;;;6.67;6.00;;;22.60;99.90;;;;;;5088023;28;20287;-75
2023/07/26 03:54:17;;;;;;;7.90;7.10;;;22.70;99.90;;;;;;5087326;28;20176;-81
2023/07/26 03:56:42;;;;;;;8.13;6.50;;;22.80;99.90;;;;;;5088231;28;20164;-75
2023/07/26 03:59:08;;;;;;;8.50;7.50;;;22.90;99.90;;;;;;5086387;28;20289;-82
2023/07/26 04:01:34;;;;;;;8.50;6.67;;;22.90;99.90;;;;;;5086621;28;20673;-82
2023/07/26 04:03:59;;;;;;;8.60;7.67;;;22.90;99.90;;;;;;5088045;28;20634;-82
2023/07/26 04:06:25;;;;;;;7.73;7.03;;;22.90;99.90;;;;;;5088356;28;20200;-82
2023/07/26 04:08:51;;;;;;;9.63;7.60;;;23.00;99.90;;;;;;5088184;28;20183;-82
2023/07/26 04:11:16;;;;;;;7.30;6.60;;;23.10;99.90;;;;;;5088598;28;20188;-78
2023/07/26 04:13:42;;;;;;;7.83;7.00;;;23.10;99.90;;;;;;5088052;28;20204;-76
2023/07/26 04:16:16;;;;;;;8.70;7.90;;;23.00;99.90;;;;;;5086511;28;20283;-81
2023/07/26 04:18:41;;;;;;;30.87;24.63;;;23.00;99.90;;;;;;5088173;28;20200;-83
2023/07/26 04:21:12;;;;;;;12.80;11.40;;;22.90;99.90;;;;;;5087930;28;20419;-75
2023/07/26 04:23:38;;;;;;;9.23;8.30;;;22.90;99.90;;;;;;5084067;28;20200;-83
2023/07/26 04:26:03;;;;;;;8.60;7.80;;;22.90;99.90;;;;;;5087787;28;20809;-81
2023/07/26 04:28:29;;;;;;;8.40;7.60;;;22.90;99.90;;;;;;5086480;28;20204;-75
2023/07/26 04:30:55;;;;;;;9.70;8.20;;;23.00;99.90;;;;;;5085307;28;20669;-76
2023/07/26 04:33:20;;;;;;;14.43;8.97;;;22.90;99.90;;;;;;5087656;28;20561;-82
2023/07/26 04:35:46;;;;;;;10.13;9.13;;;22.80;99.90;;;;;;5085811;28;20280;-81
2023/07/26 04:38:12;;;;;;;9.23;8.33;;;22.70;99.90;;;;;;5086530;28;20197;-75
2023/07/26 04:40:37;;;;;;;10.33;9.33;;;22.60;99.90;;;;;;5085742;28;20693;-81
2023/07/26 04:43:03;;;;;;;10.00;9.00;;;22.60;99.90;;;;;;5084222;28;20224;-75
2023/07/26 04:45:30;;;;;;;10.00;8.93;;;22.60;99.90;;;;;;5086777;28;21044;-82
2023/07/26 04:47:55;;;;;;;9.33;8.50;;;22.50;99.90;;;;;;5085053;28;20932;-82
2023/07/26 04:50:21;;;;;;;10.47;9.30;;;22.40;99.90;;;;;;5086022;28;20459;-82
2023/07/26 04:52:47;;;;;;;10.67;9.57;;;22.30;99.90;;;;;;5087825;28;20407;-75
2023/07/26 04:55:12;;;;;;;11.10;10.00;;;22.30;99.90;;;;;;5101927;28;20184;-81
2023/07/26 04:57:39;;;;;;;11.43;9.50;;;22.20;99.90;;;;;;5103324;28;20315;-75
2023/07/26 05:00:06;;;;;;;11.70;10.50;;;22.20;99.90;;;;;;5085934;28;20196;-75
2023/07/26 05:02:32;;;;;;;13.30;11.10;;;22.20;99.90;;;;;;5086665;28;20574;-82
2023/07/26 05:04:58;;;;;;;12.70;11.33;;;22.10;99.90;;;;;;5086510;28;20897;-81
2023/07/26 05:07:23;;;;;;;12.50;11.20;;;22.10;99.90;;;;;;5086904;28;20680;-78
2023/07/26 05:09:49;;;;;;;13.63;11.57;;;22.10;99.90;;;;;;5086286;28;20191;-75
2023/07/26 05:12:14;;;;;;;13.00;11.60;;;22.00;99.90;;;;;;5085563;28;20204;-75
2023/07/26 05:14:41;;;;;;;14.53;11.37;;;22.00;99.90;;;;;;5086961;28;20392;-81
2023/07/26 05:17:07;;;;;;;15.50;12.50;;;22.00;99.90;;;;;;5086322;28;20473;-82
2023/07/26 05:19:33;;;;;;;13.70;11.60;;;22.00;99.90;;;;;;5085015;28;20417;-75
2023/07/26 05:21:58;;;;;;;16.60;12.77;;;22.00;99.90;;;;;;5084883;28;20212;-82
2023/07/26 05:24:24;;;;;;;15.17;12.03;;;22.00;99.90;;;;;;5085235;28;20573;-82
2023/07/26 05:26:49;;;;;;;15.63;12.13;;;22.00;99.90;;;;;;5085193;28;20231;-75
2023/07/26 05:29:15;;;;;;;13.70;12.30;;;22.00;99.90;;;;;;5084735;28;20264;-81
2023/07/26 05:31:41;;;;;;;13.37;11.23;;;22.00;99.90;;;;;;5084807;28;20212;-82
2023/07/26 05:34:07;;;;;;;14.13;11.80;;;22.10;99.90;;;;;;5086462;28;20275;-82
2023/07/26 05:36:33;;;;;;;12.40;10.23;;;22.10;99.90;;;;;;5086155;28;20237;-82
2023/07/26 05:38:58;;;;;;;10.73;9.63;;;22.10;99.90;;;;;;5084003;28;20949;-75
2023/07/26 05:41:26;;;;;;;10.00;9.00;;;22.20;99.90;;;;;;5082303;28;20184;-75
2023/07/26 05:43:52;;;;;;;10.50;8.80;;;22.20;99.90;;;;;;5084163;28;20180;-82
2023/07/26 05:46:18;;;;;;;9.53;8.57;;;22.30;99.90;;;;;;5082669;28;21048;-82
2023/07/26 05:48:44;;;;;;;17.67;8.13;;;22.40;99.90;;;;;;5074622;28;21028;-75
2023/07/26 05:51:09;;;;;;;8.53;7.63;;;22.40;99.90;;;;;;5073482;28;20189;-74
2023/07/26 05:53:36;;;;;;;9.67;7.50;;;22.40;99.90;;;;;;5080447;28;20200;-74
2023/07/26 05:56:02;;;;;;;7.97;7.20;;;22.40;99.90;;;;;;5096363;28;20192;-82
2023/07/26 05:58:28;;;;;;;7.37;6.20;;;22.40;99.90;;;;;;5082819;28;20533;-82
2023/07/26 06:00:53;;;;;;;7.10;6.40;;;22.40;99.90;;;;;;5082627;28;20669;-77
2023/07/26 06:03:19;;;;;;;9.13;6.60;;;22.60;99.90;;;;;;5080414;28;20228;-74
2023/07/26 06:05:45;;;;;;;7.43;6.73;;;22.70;99.90;;;;;;5081192;28;20355;-82
2023/07/26 06:08:11;;;;;;;8.13;7.20;;;22.90;99.90;;;;;;5082156;28;20193;-74
2023/07/26 06:10:36;;;;;;;7.80;7.00;;;23.00;99.90;;;;;;5081908;28;20172;-80
2023/07/26 06:13:02;;;;;;;8.70;7.40;;;23.10;99.90;;;;;;5081206;28;20439;-74
2023/07/26 06:15:27;;;;;;;8.90;6.37;;;23.20;99.90;;;;;;5082736;28;20580;-75
2023/07/26 06:17:53;;;;;;;8.00;6.80;;;23.20;99.90;;;;;;5081183;28;20203;-74
2023/07/26 06:20:19;;;;;;;9.10;8.10;;;23.30;99.90;;;;;;5100307;28;20172;-75
2023/07/26 06:22:44;;;;;;;10.13;8.60;;;23.30;99.90;;;;;;5099809;28;20216;-81
2023/07/26 06:25:10;;;;;;;8.23;6.90;;;23.20;99.90;;;;;;5082693;28;20296;-81
2023/07/26 06:27:36;;;;;;;8.40;7.50;;;23.10;99.90;;;;;;5082760;28;20197;-75
2023/07/26 06:30:01;;;;;;;7.53;6.73;;;23.00;99.90;;;;;;5087356;28;20218;-79
2023/07/26 06:32:27;;;;;;;7.63;6.87;;;23.00;99.90;;;;;;5082493;28;20223;-81
2023/07/26 06:34:53;;;;;;;6.40;5.70;;;23.00;99.90;;;;;;5084257;28;20186;-75
2023/07/26 06:37:18;;;;;;;6.60;6.00;;;23.00;99.90;;;;;;5084833;28;20386;-74
2023/07/26 06:39:44;;;;;;;7.10;6.00;;;22.90;99.90;;;;;;5084947;28;20186;-74
2023/07/26 06:42:10;;;;;;;7.60;6.90;;;22.80;99.90;;;;;;5084965;28;20219;-82
2023/07/26 06:44:37;;;;;;;7.50;6.80;;;22.80;99.90;;;;;;5082550;28;20235;-81
2023/07/26 06:47:03;;;;;;;7.20;6.50;;;22.80;99.90;;;;;;5082528;28;20589;-74
2023/07/26 06:49:28;;;;;;;6.40;5.80;;;22.80;99.90;;;;;;5083678;28;20418;-81
2023/07/26 06:51:54;;;;;;;7.57;6.30;;;22.90;99.90;;;;;;5084955;28;20204;-74
2023/07/26 06:54:20;;;;;;;5.33;4.83;;;23.00;99.90;;;;;;5084480;28;20247;-82
2023/07/26 06:56:47;;;;;;;4.90;4.40;;;23.10;99.90;;;;;;5082018;28;20197;-81
2023/07/26 06:59:13;;;;;;;5.20;4.70;;;23.20;99.90;;;;;;5082345;28;20310;-74
2023/07/26 07:01:39;;;;;;;5.00;4.40;;;23.30;99.90;;;;;;5082965;28;20544;-82
2023/07/26 07:04:04;;;;;;;4.90;4.37;;;23.40;99.90;;;;;;5082975;28;20173;-74
2023/07/26 07:06:30;;;;;;;5.97;4.27;;;23.50;99.90;;;;;;5082235;28;20500;-74
2023/07/26 07:08:56;;;;;;;4.53;3.73;;;23.50;99.90;;;;;;5097576;28;20692;-82
2023/07/26 07:11:21;;;;;;;4.00;3.70;;;23.60;99.90;;;;;;5076344;28;20719;-80
2023/07/26 07:13:47;;;;;;;4.20;3.70;;;23.60;99.90;;;;;;5077631;28;20211;-82
2023/07/26 07:16:12;;;;;;;4.10;3.27;;;23.70;99.90;;;;;;5079301;28;20227;-82
2023/07/26 07:18:38;;;;;;;3.97;3.33;;;23.60;99.90;;;;;;5077833;28;20232;-82
2023/07/26 07:21:04;;;;;;;4.27;3.87;;;23.60;99.90;;;;;;5078837;28;20216;-75
2023/07/26 07:23:29;;;;;;;5.20;3.17;;;23.60;99.90;;;;;;5079603;28;20745;-74
2023/07/26 07:25:56;;;;;;;3.93;3.60;;;23.60;99.90;;;;;;5082685;28;20173;-81
2023/07/26 07:28:21;;;;;;;5.53;3.33;;;23.70;99.90;;;;;;5096115;28;20600;-74
2023/07/26 07:30:47;;;;;;;3.83;3.07;;;23.70;99.90;;;;;;5083811;28;20421;-78
2023/07/26 07:33:13;;;;;;;3.67;3.17;;;23.70;99.90;;;;;;5080398;28;20251;-75
2023/07/26 07:35:39;;;;;;;3.30;3.00;;;23.70;99.90;;;;;;5083624;28;20193;-80
2023/07/26 07:38:04;;;;;;;4.57;3.50;;;23.80;99.90;;;;;;5080317;28;20197;-82
2023/07/26 07:40:30;;;;;;;3.50;2.90;;;23.80;99.90;;;;;;5080339;28;20480;-75
2023/07/26 07:42:56;;;;;;;3.67;3.33;;;23.80;99.90;;;;;;5080057;28;20217;-81
2023/07/26 07:45:22;;;;;;;5.20;4.70;;;23.80;99.90;;;;;;5081955;28;20200;-81
2023/07/26 07:47:47;;;;;;;4.50;3.33;;;23.90;99.90;;;;;;5083469;28;20203;-83
2023/07/26 07:50:13;;;;;;;3.30;2.83;;;23.80;99.90;;;;;;5083289;28;20168;-82
2023/07/26 07:52:38;;;;;;;5.63;3.17;;;23.90;99.90;;;;;;5072331;28;20666;-82
2023/07/26 07:55:04;;;;;;;3.40;3.03;;;23.90;99.90;;;;;;5070409;28;20328;-74
2023/07/26 07:57:30;;;;;;;6.77;3.10;;;24.00;99.90;;;;;;5060877;28;20288;-82
2023/07/26 07:59:56;;;;;;;3.13;2.93;;;24.00;99.90;;;;;;5074333;28;20521;-83
2023/07/26 08:02:21;;;;;;;3.20;2.90;;;24.00;99.90;;;;;;5086655;28;20225;-82
2023/07/26 08:04:47;;;;;;;4.20;2.90;;;24.00;99.90;;;;;;5088598;28;20326;-81
2023/07/26 08:07:13;;;;;;;3.73;3.40;;;24.00;99.90;;;;;;5086174;28;20280;-75
2023/07/26 08:09:41;;;;;;;6.97;3.00;;;24.00;99.90;;;;;;5082803;28;20550;-75
2023/07/26 08:12:07;;;;;;;3.27;2.93;;;24.10;99.90;;;;;;5081686;28;20322;-75
2023/07/26 08:14:33;;;;;;;6.07;3.53;;;24.20;99.90;;;;;;5082824;28;20623;-82
2023/07/26 08:16:58;;;;;;;3.97;3.30;;;24.30;99.90;;;;;;5083359;28;20453;-75
2023/07/26 08:19:24;;;;;;;3.47;3.17;;;24.40;99.90;;;;;;5080392;28;20187;-75
2023/07/26 08:21:50;;;;;;;3.67;3.37;;;24.50;99.90;;;;;;5079455;28;20828;-82
2023/07/26 08:24:15;;;;;;;3.73;3.43;;;24.60;99.90;;;;;;5081935;28;20198;-82
2023/07/26 08:26:41;;;;;;;5.23;4.10;;;24.60;99.90;;;;;;5082605;28;20179;-75
2023/07/26 08:29:06;;;;;;;4.60;3.33;;;24.70;99.90;;;;;;5084922;28;20411;-83
2023/07/26 08:31:32;;;;;;;4.70;3.60;;;24.70;99.90;;;;;;5084300;28;20899;-83
2023/07/26 08:33:58;;;;;;;3.73;3.40;;;24.80;99.90;;;;;;5084166;28;20183;-84
2023/07/26 08:36:24;;;;;;;3.97;3.60;;;24.80;99.90;;;;;;5080248;28;20190;-76
2023/07/26 08:38:49;;;;;;;4.43;4.03;;;24.90;99.90;;;;;;5077593;28;20200;-75
2023/07/26 08:41:15;;;;;;;4.03;3.60;;;25.00;99.90;;;;;;5083119;28;20207;-78
2023/07/26 08:43:45;;;;;;;3.90;3.50;;;25.00;99.90;;;;;;5071029;28;20219;-75
2023/07/26 08:46:12;;;;;;;6.10;3.90;;;25.10;99.90;;;;;;5101979;28;20191;-75
2023/07/26 08:48:39;;;;;;;4.00;3.60;;;25.10;99.90;;;;;;5085154;28;20631;-83
2023/07/26 08:51:06;;;;;;;4.10;3.70;;;25.20;99.90;;;;;;5087232;28;20431;-83
2023/07/26 08:53:33;;;;;;;3.73;3.40;;;25.20;99.90;;;;;;5092084;27;20676;-75
2023/07/26 08:55:59;;;;;;;4.90;3.90;;;25.20;99.90;;;;;;5085629;28;20641;-75
2023/07/26 08:58:25;;;;;;;3.37;3.03;;;25.20;99.90;;;;;;5083873;28;20991;-75
2023/07/26 09:00:51;;;;;;;6.53;3.40;;;25.30;99.90;;;;;;5085313;28;20198;-82
2023/07/26 09:03:17;;;;;;;3.80;3.40;;;25.30;99.90;;;;;;5085471;28;20812;-75
2023/07/26 09:05:45;;;;;;;3.30;3.03;;;25.40;99.90;;;;;;5084291;28;20555;-75
2023/07/26 09:08:11;;;;;;;3.00;2.73;;;25.40;99.90;;;;;;5083254;28;20451;-75
2023/07/26 09:10:38;;;;;;;3.30;3.00;;;25.50;99.90;;;;;;5084302;28;20758;-75
2023/07/26 09:13:07;;;;;;;22.43;17.23;;;25.60;99.90;;;;;;5080606;28;21071;-76
2023/07/26 09:15:37;;;;;;;6.00;3.53;;;25.60;99.90;;;;;;5083210;28;20427;-76
2023/07/26 09:18:06;;;;;;;3.07;2.77;;;25.60;99.90;;;;;;5073590;28;20453;-83
2023/07/26 09:20:33;;;;;;;3.50;2.60;;;25.60;99.90;;;;;;5085648;28;20956;-83
2023/07/26 09:23:06;;;;;;;3.30;3.00;;;25.60;99.90;;;;;;5075486;28;20477;-83
2023/07/26 09:25:41;;;;;;;3.00;2.67;;;25.60;99.90;;;;;;5076581;28;21000;-83
2023/07/26 09:28:08;;;;;;;2.90;2.60;;;25.60;99.90;;;;;;5077180;28;20460;-75
2023/07/26 09:30:39;;;;;;;3.67;3.37;;;25.70;99.90;;;;;;5077617;28;20429;-83
2023/07/26 09:33:07;;;;;;;3.07;2.77;;;25.70;99.90;;;;;;5082794;28;21629;-83
2023/07/26 09:35:46;;;;;;;4.23;3.00;;;25.70;99.90;;;;;;5077720;28;20426;-75
2023/07/26 09:38:14;;;;;;;2.90;2.53;;;25.80;99.90;;;;;;5080269;28;20457;-75
2023/07/26 09:40:40;;;;;;;3.10;2.80;;;25.80;99.90;;;;;;5070500;28;20425;-75
2023/07/26 09:43:05;;;;;;;2.80;2.60;;;25.80;99.90;;;;;;5078431;28;20491;-76
2023/07/26 09:45:31;;;;;;;2.73;2.53;;;25.90;99.90;;;;;;5076228;28;20404;-76
2023/07/26 09:48:11;;;;;;;2.80;2.60;;;25.90;99.90;;;;;;5072336;28;20261;-76
2023/07/26 09:50:37;;;;;;;5.57;2.37;;;26.00;99.90;;;;;;5072169;28;20486;-75
2023/07/26 09:53:06;;;;;;;2.53;2.33;;;26.00;99.90;;;;;;5071160;28;20523;-82
2023/07/26 09:55:33;;;;;;;4.57;2.43;;;26.00;99.90;;;;;;5077692;28;20429;-83
2023/07/26 09:57:59;;;;;;;3.43;2.80;;;26.00;99.90;;;;;;5072005;28;20554;-83
2023/07/26 10:00:28;;;;;;;2.93;2.30;;;26.00;99.90;;;;;;5071758;28;20777;-82
2023/07/26 10:02:57;;;;;;;7.27;5.90;;;26.00;99.90;;;;;;5076325;28;20525;-83
2023/07/26 10:05:25;;;;;;;3.40;2.53;;;26.00;99.90;;;;;;5078108;28;20437;-83
2023/07/26 10:07:52;;;;;;;3.37;2.23;;;26.00;99.90;;;;;;5080303;28;21950;-83
2023/07/26 10:10:19;;;;;;;3.20;2.90;;;26.00;99.90;;;;;;5079042;28;20440;-82
2023/07/26 10:12:46;;;;;;;4.90;2.63;;;26.00;99.90;;;;;;5080896;28;20445;-75
2023/07/26 10:15:16;;;;;;;2.90;2.60;;;26.00;99.90;;;;;;5078828;28;20417;-82
2023/07/26 10:17:49;;;;;;;2.80;2.60;;;26.00;99.90;;;;;;5081741;28;20493;-75
2023/07/26 10:20:15;;;;;;;2.20;2.00;;;26.10;99.90;;;;;;5081914;28;20826;-76
2023/07/26 10:22:42;;;;;;;3.53;2.40;;;26.10;99.90;;;;;;5066159;28;20476;-76
2023/07/26 10:25:08;;;;;;;2.80;2.60;;;26.00;99.90;;;;;;5086219;28;20247;-76
2023/07/26 10:27:35;;;;;;;2.40;2.20;;;26.00;99.90;;;;;;5082215;28;20452;-75
2023/07/26 10:30:01;;;;;;;3.83;2.97;;;26.00;99.90;;;;;;5083395;28;20417;-84
2023/07/26 10:32:27;;;;;;;3.70;2.67;;;25.90;99.90;;;;;;5080959;28;20748;-75
2023/07/26 10:34:56;;;;;;;2.87;2.67;;;25.90;99.90;;;;;;5071405;28;21038;-82
2023/07/26 10:37:23;;;;;;;2.87;2.67;;;25.90;99.90;;;;;;5083671;28;20195;-75
2023/07/26 10:39:49;;;;;;;2.70;2.50;;;25.90;99.90;;;;;;5082251;28;20417;-83
2023/07/26 10:42:25;;;;;;;2.83;2.63;;;25.90;99.90;;;;;;5082461;28;20508;-83
2023/07/26 10:45:32;;;;;;;3.00;2.80;;;26.00;99.90;;;;;;5077143;28;20462;-76
2023/07/26 10:47:58;;;;;;;2.90;2.30;;;26.00;99.90;;;;;;5063768;28;20437;-75
2023/07/26 10:50:24;;;;;;;2.70;2.50;;;26.00;99.90;;;;;;5063282;28;20543;-80
2023/07/26 10:52:50;;;;;;;2.70;2.50;;;25.90;99.90;;;;;;5082701;28;20203;-76
2023/07/26 10:55:23;;;;;;;2.93;2.63;;;26.00;99.90;;;;;;5082425;28;20416;-75
2023/07/26 10:57:49;;;;;;;4.73;2.53;;;25.90;99.90;;;;;;5077464;28;20235;-83
2023/07/26 11:00:23;;;;;;;5.33;2.57;;;26.00;99.90;;;;;;5079118;28;20463;-75
2023/07/26 11:02:58;;;;;;;4.70;3.30;;;26.00;99.90;;;;;;5073452;28;20820;-82
2023/07/26 11:05:26;;;;;;;2.90;2.70;;;26.00;99.90;;;;;;5073683;28;20508;-75
2023/07/26 11:08:01;;;;;;;3.80;2.80;;;26.00;99.90;;;;;;5077775;28;20789;-75
2023/07/26 11:10:31;;;;;;;2.80;2.60;;;25.90;99.90;;;;;;5076054;28;20511;-76
2023/07/26 11:13:11;;;;;;;3.07;2.80;;;25.90;99.90;;;;;;5077574;28;20521;-83
2023/07/26 11:15:40;;;;;;;2.97;2.77;;;25.90;99.90;;;;;;5080213;28;20432;-83
2023/07/26 11:18:06;;;;;;;3.20;3.00;;;25.90;99.90;;;;;;5077789;28;20674;-75
2023/07/26 11:20:32;;;;;;;3.27;2.67;;;25.90;99.90;;;;;;5078899;28;20425;-76
2023/07/26 11:22:58;;;;;;;5.50;2.53;;;25.90;99.90;;;;;;5076841;28;20492;-75
2023/07/26 11:25:24;;;;;;;2.80;2.60;;;25.80;99.90;;;;;;5076354;28;20203;-75
2023/07/26 11:27:49;;;;;;;3.03;2.73;;;25.80;99.90;;;;;;5077573;28;20602;-82
2023/07/26 11:30:18;;;;;;;2.50;2.30;;;25.80;99.90;;;;;;5075893;28;20624;-82
2023/07/26 11:32:49;;;;;;;2.93;2.63;;;25.80;99.90;;;;;;5093960;28;20455;-82
2023/07/26 11:35:19;;;;;;;3.27;2.97;;;25.80;99.90;;;;;;5072622;28;20797;-84
2023/07/26 11:37:56;;;;;;;3.50;3.10;;;25.80;99.90;;;;;;5071792;28;20514;-75
2023/07/26 11:40:22;;;;;;;2.67;2.47;;;25.80;99.90;;;;;;5068638;28;20468;-75
2023/07/26 11:42:52;;;;;;;3.03;2.83;;;25.70;99.90;;;;;;5081728;28;20476;-75
2023/07/26 11:45:18;;;;;;;3.00;2.80;;;25.70;99.90;;;;;;5078890;28;20414;-83
2023/07/26 11:47:44;;;;;;;3.17;2.97;;;25.70;99.90;;;;;;5069969;28;21047;-83
2023/07/26 11:50:10;;;;;;;3.23;2.90;;;25.70;99.90;;;;;;5083578;28;20777;-76
2023/07/26 11:52:36;;;;;;;3.27;2.97;;;25.70;99.90;;;;;;5102723;27;20448;-76
2023/07/26 11:55:03;;;;;;;3.30;3.10;;;25.60;99.90;;;;;;5078864;28;20238;-75
2023/07/26 11:57:30;;;;;;;3.83;3.53;;;25.60;99.90;;;;;;5085233;28;20602;-75
2023/07/26 11:59:59;;;;;;;3.30;3.00;;;25.60;99.90;;;;;;5074697;28;20505;-76
2023/07/26 12:02:25;;;;;;;3.27;3.07;;;25.60;99.90;;;;;;5100826;27;20584;-83
2023/07/26 12:05:15;;;;;;;4.30;3.90;;;25.50;99.90;;;;;;5080839;28;20770;-83
2023/07/26 12:08:03;;;;;;;4.20;3.90;;;25.50;99.90;;;;;;5083135;28;20887;-83
2023/07/26 12:10:39;;;;;;;5.00;4.20;;;25.40;99.90;;;;;;5071454;28;20425;-83
2023/07/26 12:13:08;;;;;;;3.73;3.47;;;25.40;99.90;;;;;;5074283;28;20452;-83
2023/07/26 12:15:52;;;;;;;3.87;3.57;;;25.30;99.90;;;;;;5081851;28;20889;-75
2023/07/26 12:18:19;;;;;;;4.53;4.10;;;25.30;99.90;;;;;;5076746;28;20451;-83
2023/07/26 12:20:57;;;;;;;4.10;3.70;;;25.30;99.90;;;;;;5094923;28;20417;-75
2023/07/26 12:23:25;;;;;;;3.90;3.60;;;25.30;99.90;;;;;;5069816;28;20484;-83
2023/07/26 12:26:00;;;;;;;4.80;4.43;;;25.20;99.90;;;;;;5077950;28;20456;-83
2023/07/26 12:28:26;;;;;;;4.60;4.30;;;25.20;99.90;;;;;;5070257;28;21050;-83
2023/07/26 12:30:56;;;;;;;4.37;3.60;;;25.20;99.90;;;;;;5080997;28;20416;-75
2023/07/26 12:33:24;;;;;;;3.97;3.53;;;25.20;99.90;;;;;;5066109;28;20440;-82
2023/07/26 12:35:55;;;;;;;4.10;3.80;;;25.20;99.90;;;;;;5082677;28;20511;-75
2023/07/26 12:38:22;;;;;;;4.60;4.20;;;25.20;99.90;;;;;;5078687;28;20559;-75
2023/07/26 12:40:49;;;;;;;4.20;3.90;;;25.20;99.90;;;;;;5080486;28;20448;-82
2023/07/26 12:43:26;;;;;;;3.93;3.67;;;25.20;99.90;;;;;;5084305;28;20475;-83
2023/07/26 12:45:55;;;;;;;4.10;3.80;;;25.20;99.90;;;;;;5082663;28;20509;-75